Time;durP1;ratioP1;P1;durP2;ratioP2;P2;SDS_P1;SDS_P2;PMS_P1;PMS_P2;Temp;Humidity;BMP_temperature;BMP_pressure;BME280_temperature;BME280_humidity;BME280_pressure;Samples;Min_cycle;Max_cycle;Signal;HPM_P1;HPM_P2
2024/01/29 00:00:09;;;;;;;8.37;4.27;;;3.70;99.90;;;;;;5024235;28;20682;-53
2024/01/29 00:02:36;;;;;;;6.67;3.90;;;3.70;99.90;;;;;;5006610;28;20233;-52
2024/01/29 00:05:02;;;;;;;6.87;3.87;;;3.70;99.90;;;;;;5034644;28;20678;-53
2024/01/29 00:07:27;;;;;;;6.70;3.80;;;3.80;99.90;;;;;;5036600;28;20202;-61
2024/01/29 00:09:53;;;;;;;8.10;4.40;;;3.70;99.90;;;;;;5023531;28;20204;-59
2024/01/29 00:12:18;;;;;;;5.73;3.80;;;3.70;99.90;;;;;;5036238;28;20305;-56
2024/01/29 00:14:44;;;;;;;7.10;4.23;;;3.70;99.90;;;;;;5041611;28;20222;-52
2024/01/29 00:17:09;;;;;;;7.10;4.20;;;3.70;99.90;;;;;;5040487;28;20201;-53
2024/01/29 00:19:35;;;;;;;8.97;4.33;;;3.70;99.90;;;;;;5043219;28;20576;-57
2024/01/29 00:22:00;;;;;;;6.47;4.00;;;3.60;99.90;;;;;;5018700;28;20340;-56
2024/01/29 00:24:26;;;;;;;7.37;4.33;;;3.60;99.90;;;;;;5043913;28;20225;-54
2024/01/29 00:26:52;;;;;;;6.83;4.43;;;3.50;99.90;;;;;;5045222;28;20198;-54
2024/01/29 00:29:17;;;;;;;7.37;4.60;;;3.40;99.90;;;;;;5043878;28;20342;-54
2024/01/29 00:31:43;;;;;;;8.27;4.87;;;3.50;99.90;;;;;;5020824;28;20195;-56
2024/01/29 00:34:09;;;;;;;6.70;4.70;;;3.50;99.90;;;;;;5040236;28;20198;-51
2024/01/29 00:36:35;;;;;;;10.23;4.47;;;3.40;99.90;;;;;;5037466;28;20210;-52
2024/01/29 00:39:06;;;;;;;6.70;3.90;;;3.40;99.90;;;;;;5039096;28;21102;-54
2024/01/29 00:41:32;;;;;;;9.00;4.20;;;3.40;99.90;;;;;;5047671;28;20205;-54
2024/01/29 00:43:57;;;;;;;6.37;4.23;;;3.40;99.90;;;;;;5025073;28;20232;-52
2024/01/29 00:46:23;;;;;;;4.97;3.57;;;3.30;99.90;;;;;;5016525;28;20203;-54
2024/01/29 00:48:48;;;;;;;5.77;4.20;;;3.30;99.90;;;;;;5040754;28;20702;-51
2024/01/29 00:51:14;;;;;;;8.70;4.17;;;3.20;99.90;;;;;;5019592;28;20214;-52
2024/01/29 00:53:40;;;;;;;9.13;4.27;;;3.20;99.90;;;;;;5040293;28;20267;-52
2024/01/29 00:56:06;;;;;;;8.03;4.17;;;3.30;99.90;;;;;;5036700;28;20655;-52
2024/01/29 00:58:31;;;;;;;9.13;4.53;;;3.30;99.90;;;;;;5021833;28;20202;-53
2024/01/29 01:00:57;;;;;;;9.63;4.77;;;3.30;99.90;;;;;;5017604;28;20695;-53
2024/01/29 01:03:22;;;;;;;6.13;4.13;;;3.30;99.90;;;;;;5021849;28;20207;-55
2024/01/29 01:05:48;;;;;;;8.53;4.30;;;3.30;99.90;;;;;;5034825;28;20201;-54
2024/01/29 01:08:14;;;;;;;7.50;4.80;;;3.30;99.90;;;;;;5033806;28;20891;-52
2024/01/29 01:10:40;;;;;;;7.77;4.57;;;3.30;99.90;;;;;;5016138;28;20652;-54
2024/01/29 01:13:05;;;;;;;5.93;4.30;;;3.30;99.90;;;;;;5036127;28;20198;-54
2024/01/29 01:15:31;;;;;;;6.37;4.13;;;3.40;99.90;;;;;;5017404;28;20712;-54
2024/01/29 01:17:56;;;;;;;8.83;4.23;;;3.40;99.90;;;;;;5036248;28;20202;-51
2024/01/29 01:20:23;;;;;;;8.43;4.73;;;3.40;99.90;;;;;;5035558;28;20210;-55
2024/01/29 01:22:50;;;;;;;4.87;3.53;;;3.40;99.90;;;;;;5039813;28;20205;-58
2024/01/29 01:25:15;;;;;;;8.50;4.40;;;3.30;99.90;;;;;;5032083;28;20249;-58
2024/01/29 01:27:41;;;;;;;6.83;4.53;;;3.30;99.90;;;;;;5035423;28;21115;-62
2024/01/29 01:30:07;;;;;;;7.60;4.60;;;3.30;99.90;;;;;;5034479;28;20255;-57
2024/01/29 01:32:32;;;;;;;7.13;4.60;;;3.40;99.90;;;;;;5032320;28;20212;-60
2024/01/29 01:34:58;;;;;;;7.23;4.47;;;3.40;99.90;;;;;;5041486;28;20279;-52
2024/01/29 01:37:23;;;;;;;7.23;4.30;;;3.50;99.90;;;;;;5020367;28;20292;-59
2024/01/29 01:39:52;;;;;;;12.00;5.00;;;3.30;99.90;;;;;;5016706;28;20229;-56
2024/01/29 01:42:21;;;;;;;4.90;3.53;;;3.20;99.90;;;;;;5037972;28;20197;-56
2024/01/29 01:44:47;;;;;;;9.10;4.97;;;3.10;99.90;;;;;;5044427;28;20281;-51
2024/01/29 01:47:13;;;;;;;6.67;4.50;;;3.10;99.90;;;;;;5042697;28;20312;-51
2024/01/29 01:49:39;;;;;;;8.20;4.97;;;3.10;99.90;;;;;;5044820;28;20204;-53
2024/01/29 01:52:08;;;;;;;5.80;4.23;;;3.00;99.90;;;;;;5040608;28;20675;-54
2024/01/29 01:54:34;;;;;;;10.97;4.87;;;3.00;99.90;;;;;;4995563;28;20221;-53
2024/01/29 01:57:01;;;;;;;5.73;4.50;;;3.00;99.90;;;;;;5014703;28;20203;-53
2024/01/29 01:59:29;;;;;;;9.73;4.70;;;3.00;99.90;;;;;;5033317;28;20696;-52
2024/01/29 02:01:55;;;;;;;11.10;4.20;;;3.00;99.90;;;;;;5011228;28;20206;-52
2024/01/29 02:04:21;;;;;;;7.43;4.67;;;3.00;99.90;;;;;;5029912;28;20198;-53
2024/01/29 02:06:48;;;;;;;10.23;4.37;;;3.00;99.90;;;;;;5033944;28;20206;-53
2024/01/29 02:09:14;;;;;;;11.33;4.23;;;3.00;99.90;;;;;;5015605;28;20190;-52
2024/01/29 02:11:39;;;;;;;5.50;4.20;;;3.00;99.90;;;;;;5039533;28;20204;-52
2024/01/29 02:14:05;;;;;;;11.47;5.30;;;3.00;99.90;;;;;;5038884;28;20210;-51
2024/01/29 02:16:30;;;;;;;5.63;4.63;;;3.00;99.90;;;;;;5021441;28;20304;-51
2024/01/29 02:18:56;;;;;;;9.20;5.63;;;3.00;99.90;;;;;;5027404;28;20198;-51
2024/01/29 02:21:21;;;;;;;4.87;4.17;;;3.00;99.90;;;;;;5039514;28;20229;-51
2024/01/29 02:23:47;;;;;;;10.07;5.20;;;3.00;99.90;;;;;;5036747;28;20221;-51
2024/01/29 02:26:13;;;;;;;10.03;4.73;;;3.00;99.90;;;;;;5041548;28;20668;-51
2024/01/29 02:28:38;;;;;;;13.70;5.13;;;3.00;99.90;;;;;;5044958;28;20230;-52
2024/01/29 02:31:05;;;;;;;10.00;5.57;;;3.00;99.90;;;;;;5043249;28;20305;-52
2024/01/29 02:33:31;;;;;;;6.13;4.80;;;3.00;99.90;;;;;;5039799;28;20197;-52
2024/01/29 02:35:56;;;;;;;5.67;4.67;;;3.10;99.90;;;;;;5019494;28;20215;-52
2024/01/29 02:38:22;;;;;;;10.13;6.07;;;3.10;99.90;;;;;;5032848;28;20221;-52
2024/01/29 02:40:47;;;;;;;11.80;4.90;;;3.10;99.90;;;;;;5038450;28;20217;-50
2024/01/29 02:43:13;;;;;;;9.07;4.50;;;3.10;99.90;;;;;;5038661;28;20208;-51
2024/01/29 02:45:39;;;;;;;8.90;5.63;;;3.10;99.90;;;;;;5039339;28;20253;-51
2024/01/29 02:48:05;;;;;;;10.30;4.43;;;3.20;99.90;;;;;;5041863;28;20294;-51
2024/01/29 02:50:31;;;;;;;9.03;4.70;;;3.20;99.90;;;;;;5045003;28;20202;-52
2024/01/29 02:52:58;;;;;;;11.70;4.77;;;3.20;99.90;;;;;;5007895;28;20465;-52
2024/01/29 02:55:23;;;;;;;6.00;5.13;;;3.20;99.90;;;;;;5027800;28;20387;-52
2024/01/29 02:57:49;;;;;;;11.17;4.40;;;3.20;99.90;;;;;;5040812;28;20214;-52
2024/01/29 03:00:15;;;;;;;8.50;5.73;;;3.20;99.90;;;;;;5042738;28;20209;-56
2024/01/29 03:02:40;;;;;;;8.90;5.37;;;3.20;99.90;;;;;;5038415;28;20230;-52
2024/01/29 03:05:07;;;;;;;10.27;4.90;;;3.20;99.90;;;;;;5047922;28;20232;-52
2024/01/29 03:07:32;;;;;;;8.10;4.97;;;3.20;99.90;;;;;;5039508;28;20242;-52
2024/01/29 03:09:58;;;;;;;7.00;4.70;;;3.20;99.90;;;;;;5020140;28;20632;-53
2024/01/29 03:12:23;;;;;;;8.80;5.27;;;3.20;99.90;;;;;;5035434;28;20732;-53
2024/01/29 03:14:49;;;;;;;10.80;5.30;;;3.10;99.90;;;;;;5026953;28;20268;-52
2024/01/29 03:17:14;;;;;;;12.43;5.20;;;3.10;99.90;;;;;;5038062;28;20954;-52
2024/01/29 03:19:40;;;;;;;5.40;4.60;;;3.10;99.90;;;;;;5044265;28;20198;-51
2024/01/29 03:22:06;;;;;;;9.67;5.23;;;3.10;99.90;;;;;;5045575;28;20198;-51
2024/01/29 03:24:31;;;;;;;7.60;4.70;;;3.10;99.90;;;;;;5041451;28;20312;-52
2024/01/29 03:26:57;;;;;;;11.77;6.07;;;3.00;99.90;;;;;;5020758;28;20254;-52
2024/01/29 03:29:22;;;;;;;11.40;4.50;;;3.00;99.90;;;;;;5038050;28;21011;-52
2024/01/29 03:31:48;;;;;;;5.63;4.90;;;3.00;99.90;;;;;;5029768;28;20422;-52
2024/01/29 03:34:13;;;;;;;10.57;5.33;;;3.00;99.90;;;;;;5030279;28;20210;-52
2024/01/29 03:36:39;;;;;;;7.97;5.13;;;3.00;99.90;;;;;;5047928;28;20206;-52
2024/01/29 03:39:04;;;;;;;7.97;5.07;;;3.00;99.90;;;;;;5037723;28;20248;-52
2024/01/29 03:41:30;;;;;;;9.33;5.40;;;3.00;99.90;;;;;;5029859;28;20924;-52
2024/01/29 03:43:55;;;;;;;7.77;5.30;;;3.00;99.90;;;;;;5029138;28;20217;-52
2024/01/29 03:46:21;;;;;;;7.87;4.93;;;2.90;99.90;;;;;;5029762;28;20197;-52
2024/01/29 03:48:46;;;;;;;8.20;5.00;;;2.90;99.90;;;;;;5040999;28;20265;-52
2024/01/29 03:51:12;;;;;;;10.53;5.70;;;2.90;99.90;;;;;;5024839;28;20206;-59
2024/01/29 03:53:38;;;;;;;9.67;4.53;;;3.00;99.90;;;;;;5034988;28;20225;-52
2024/01/29 03:56:04;;;;;;;8.93;7.70;;;3.00;99.90;;;;;;5036815;28;20214;-52
2024/01/29 03:58:29;;;;;;;11.53;5.13;;;3.00;99.90;;;;;;5000510;28;20205;-53
2024/01/29 04:00:54;;;;;;;10.77;6.03;;;2.90;99.90;;;;;;5023823;28;20215;-52
2024/01/29 04:03:20;;;;;;;11.07;5.80;;;2.90;99.90;;;;;;5024867;28;20198;-52
2024/01/29 04:05:46;;;;;;;8.53;5.33;;;2.90;99.90;;;;;;5041853;28;20190;-52
2024/01/29 04:08:11;;;;;;;7.73;5.60;;;2.80;99.90;;;;;;5043392;28;20291;-51
2024/01/29 04:10:37;;;;;;;9.03;6.03;;;2.80;99.90;;;;;;5014046;28;20213;-59
2024/01/29 04:13:03;;;;;;;11.00;5.37;;;2.80;99.90;;;;;;5037107;28;20198;-52
2024/01/29 04:15:29;;;;;;;9.80;6.13;;;2.80;99.90;;;;;;5041357;28;20243;-59
2024/01/29 04:17:55;;;;;;;11.57;6.03;;;2.80;99.90;;;;;;5044703;28;20205;-57
2024/01/29 04:20:20;;;;;;;9.57;5.70;;;2.80;99.90;;;;;;5043842;28;20289;-53
2024/01/29 04:22:46;;;;;;;9.80;4.93;;;2.70;99.90;;;;;;5050403;28;20338;-52
2024/01/29 04:25:13;;;;;;;9.37;5.37;;;2.80;99.90;;;;;;5043015;28;20836;-52
2024/01/29 04:27:38;;;;;;;10.60;5.73;;;2.80;99.90;;;;;;5044645;28;20694;-52
2024/01/29 04:30:04;;;;;;;13.67;5.40;;;2.80;99.90;;;;;;5046025;28;20226;-52
2024/01/29 04:32:30;;;;;;;9.87;4.80;;;2.70;99.90;;;;;;5029055;28;20225;-52
2024/01/29 04:34:55;;;;;;;7.60;4.97;;;2.70;99.90;;;;;;5023085;28;20221;-52
2024/01/29 04:37:22;;;;;;;8.33;5.23;;;2.80;99.90;;;;;;5034947;28;20197;-51
2024/01/29 04:39:47;;;;;;;9.00;5.63;;;2.90;99.90;;;;;;5038864;28;20729;-53
2024/01/29 04:42:13;;;;;;;9.00;6.00;;;2.80;99.90;;;;;;5043168;28;20193;-55
2024/01/29 04:44:38;;;;;;;9.70;5.03;;;2.80;99.90;;;;;;5043370;28;20205;-52
2024/01/29 04:47:04;;;;;;;10.17;4.87;;;2.80;99.90;;;;;;5044510;28;20209;-52
2024/01/29 04:49:29;;;;;;;9.07;5.10;;;2.80;99.90;;;;;;5047647;28;20619;-52
2024/01/29 04:51:55;;;;;;;9.07;4.90;;;2.80;99.90;;;;;;5037833;28;20210;-53
2024/01/29 04:54:20;;;;;;;8.57;5.43;;;2.80;99.90;;;;;;5040908;28;20200;-52
2024/01/29 04:56:46;;;;;;;9.17;5.90;;;2.80;99.90;;;;;;5019693;28;21030;-52
2024/01/29 04:59:11;;;;;;;10.80;5.70;;;2.80;99.90;;;;;;5041150;28;20215;-52
2024/01/29 05:01:37;;;;;;;8.50;5.60;;;2.80;99.90;;;;;;5043190;28;20198;-51
2024/01/29 05:04:03;;;;;;;12.17;5.20;;;2.80;99.90;;;;;;5021890;28;20956;-53
2024/01/29 05:06:29;;;;;;;11.47;6.30;;;2.80;99.90;;;;;;5032792;28;20206;-52
2024/01/29 05:08:55;;;;;;;10.47;5.40;;;2.70;99.90;;;;;;5040706;28;20201;-52
2024/01/29 05:11:20;;;;;;;8.97;6.27;;;2.90;99.90;;;;;;5014258;28;20199;-52
2024/01/29 05:13:46;;;;;;;11.00;5.67;;;2.90;99.90;;;;;;5024172;28;20210;-52
2024/01/29 05:16:12;;;;;;;8.37;5.47;;;2.90;99.90;;;;;;5040776;28;20218;-53
2024/01/29 05:18:37;;;;;;;12.53;5.27;;;2.90;99.90;;;;;;5040335;28;20198;-52
2024/01/29 05:21:06;;;;;;;8.00;4.90;;;2.90;99.90;;;;;;5021628;28;20713;-52
2024/01/29 05:23:32;;;;;;;9.23;5.73;;;2.90;99.90;;;;;;5041326;28;20209;-52
2024/01/29 05:25:57;;;;;;;8.63;5.23;;;2.90;99.90;;;;;;5037454;28;20211;-58
2024/01/29 05:28:23;;;;;;;8.33;5.60;;;2.80;99.90;;;;;;5042042;28;20235;-52
2024/01/29 05:30:51;;;;;;;11.40;5.67;;;2.80;99.90;;;;;;5044899;28;20741;-51
2024/01/29 05:33:17;;;;;;;9.20;4.97;;;2.70;99.90;;;;;;5046003;28;20206;-53
2024/01/29 05:35:42;;;;;;;8.27;4.90;;;2.80;99.90;;;;;;5007929;28;20988;-53
2024/01/29 05:38:08;;;;;;;9.93;6.07;;;2.80;99.90;;;;;;5020980;28;20260;-57
2024/01/29 05:40:33;;;;;;;7.40;5.33;;;2.90;99.90;;;;;;5015811;28;20204;-51
2024/01/29 05:42:59;;;;;;;8.87;4.83;;;2.90;99.90;;;;;;5032419;28;20304;-51
2024/01/29 05:45:24;;;;;;;10.03;6.17;;;2.90;99.90;;;;;;5031367;28;20606;-54
2024/01/29 05:47:50;;;;;;;8.50;4.60;;;2.90;99.90;;;;;;5034791;28;20248;-51
2024/01/29 05:50:16;;;;;;;7.67;5.10;;;2.90;99.90;;;;;;5034733;28;20198;-52
2024/01/29 05:52:41;;;;;;;7.57;4.97;;;2.90;99.90;;;;;;5023771;28;20196;-52
2024/01/29 05:55:07;;;;;;;7.87;5.40;;;2.90;99.90;;;;;;5042636;28;20205;-53
2024/01/29 05:57:33;;;;;;;8.50;5.47;;;2.90;99.90;;;;;;5045300;28;20197;-53
2024/01/29 05:59:59;;;;;;;10.77;5.03;;;2.80;99.90;;;;;;5037693;28;20205;-53
2024/01/29 06:02:25;;;;;;;11.10;5.23;;;2.80;99.90;;;;;;5036387;28;20234;-52
2024/01/29 06:04:50;;;;;;;9.40;5.27;;;2.80;99.90;;;;;;5038610;28;20198;-55
2024/01/29 06:07:16;;;;;;;8.47;5.23;;;2.70;99.90;;;;;;5038395;28;20218;-52
2024/01/29 06:09:41;;;;;;;10.77;5.97;;;2.80;99.90;;;;;;5040214;28;20686;-52
2024/01/29 06:12:07;;;;;;;6.47;4.87;;;2.80;99.90;;;;;;5037200;28;20217;-52
2024/01/29 06:14:32;;;;;;;13.17;6.17;;;2.80;99.90;;;;;;5043105;28;20261;-51
2024/01/29 06:16:58;;;;;;;10.10;5.97;;;2.80;99.90;;;;;;5043457;28;20245;-52
2024/01/29 06:19:24;;;;;;;7.90;5.60;;;2.80;99.90;;;;;;5045000;28;20365;-52
2024/01/29 06:21:50;;;;;;;12.97;5.97;;;2.80;99.90;;;;;;5020970;28;20213;-53
2024/01/29 06:24:16;;;;;;;10.83;6.13;;;2.80;99.90;;;;;;5042204;28;20226;-53
2024/01/29 06:26:42;;;;;;;6.50;4.63;;;2.80;99.90;;;;;;5022704;28;20836;-53
2024/01/29 06:29:08;;;;;;;8.70;5.60;;;2.80;99.90;;;;;;5032897;28;20354;-53
2024/01/29 06:31:38;;;;;;;13.57;6.07;;;2.80;99.90;;;;;;5038691;28;20289;-58
2024/01/29 06:34:04;;;;;;;10.37;5.40;;;2.80;99.90;;;;;;5041470;28;20233;-53
2024/01/29 06:36:30;;;;;;;13.43;5.17;;;2.90;99.90;;;;;;5045966;28;20613;-52
2024/01/29 06:38:58;;;;;;;12.53;5.03;;;2.90;99.90;;;;;;5014446;28;20193;-52
2024/01/29 06:41:24;;;;;;;8.17;5.13;;;2.90;99.90;;;;;;5040592;28;20244;-52
2024/01/29 06:43:50;;;;;;;7.50;5.00;;;2.90;99.90;;;;;;5028114;28;20227;-52
2024/01/29 06:46:16;;;;;;;8.47;5.03;;;2.80;99.90;;;;;;5022388;28;20189;-53
2024/01/29 06:48:42;;;;;;;11.10;6.10;;;2.80;99.90;;;;;;5019091;28;20218;-52
2024/01/29 06:51:07;;;;;;;7.37;5.17;;;2.80;99.90;;;;;;5020524;28;20206;-53
2024/01/29 06:53:34;;;;;;;6.07;4.70;;;2.70;99.90;;;;;;5018633;28;20197;-52
2024/01/29 06:56:02;;;;;;;13.93;5.87;;;2.70;99.90;;;;;;5042439;28;20605;-52
2024/01/29 06:58:28;;;;;;;11.13;5.97;;;2.70;99.90;;;;;;5035691;28;20740;-52
2024/01/29 07:00:59;;;;;;;9.07;5.17;;;2.80;99.90;;;;;;5037962;28;20320;-52
2024/01/29 07:03:25;;;;;;;6.17;4.83;;;2.80;99.90;;;;;;5038282;28;20195;-52
2024/01/29 07:05:51;;;;;;;8.10;5.37;;;2.80;99.90;;;;;;5044256;28;20199;-51
2024/01/29 07:08:17;;;;;;;17.00;6.00;;;2.80;99.90;;;;;;5036731;28;20201;-52
2024/01/29 07:10:43;;;;;;;8.13;4.97;;;2.70;99.90;;;;;;5041459;28;20197;-51
2024/01/29 07:13:08;;;;;;;9.53;5.30;;;2.70;99.90;;;;;;5040088;28;20286;-51
2024/01/29 07:15:34;;;;;;;7.03;5.60;;;2.60;99.90;;;;;;5042484;28;20221;-52
2024/01/29 07:18:00;;;;;;;9.43;5.30;;;2.60;99.90;;;;;;5035115;28;20572;-52
2024/01/29 07:20:29;;;;;;;9.03;5.07;;;2.60;99.90;;;;;;5040222;28;20668;-51
2024/01/29 07:22:56;;;;;;;11.03;5.10;;;2.60;99.90;;;;;;5037098;28;20222;-52
2024/01/29 07:25:22;;;;;;;7.53;4.43;;;2.60;99.90;;;;;;5046977;28;20735;-52
2024/01/29 07:27:48;;;;;;;8.43;4.47;;;2.60;99.90;;;;;;5020833;28;20222;-52
2024/01/29 07:30:14;;;;;;;10.03;5.30;;;2.70;99.90;;;;;;5035060;28;20387;-53
2024/01/29 07:32:40;;;;;;;10.27;5.77;;;2.70;99.90;;;;;;5013792;28;20194;-56
2024/01/29 07:35:06;;;;;;;10.63;5.37;;;2.70;99.90;;;;;;5034602;28;20312;-51
2024/01/29 07:37:32;;;;;;;11.10;5.33;;;2.70;99.90;;;;;;5035077;28;20227;-53
2024/01/29 07:39:58;;;;;;;10.37;5.30;;;2.80;99.90;;;;;;5033050;28;20205;-51
2024/01/29 07:42:24;;;;;;;14.67;4.93;;;2.90;99.90;;;;;;5032532;28;20368;-51
2024/01/29 07:44:51;;;;;;;7.87;5.17;;;2.90;99.90;;;;;;5020261;28;20197;-52
2024/01/29 07:47:17;;;;;;;5.17;4.60;;;3.00;99.90;;;;;;5042627;28;20224;-54
2024/01/29 07:49:42;;;;;;;10.17;5.77;;;3.00;99.90;;;;;;5042309;28;20289;-51
2024/01/29 07:52:09;;;;;;;9.97;4.93;;;3.10;99.90;;;;;;5036732;28;20198;-52
2024/01/29 07:54:38;;;;;;;8.67;5.23;;;3.20;99.90;;;;;;5033733;28;20659;-53
2024/01/29 07:57:03;;;;;;;10.87;5.53;;;3.30;99.90;;;;;;5005995;28;20205;-52
2024/01/29 07:59:29;;;;;;;7.93;4.97;;;3.30;99.90;;;;;;5020497;28;20199;-53
2024/01/29 08:01:55;;;;;;;10.60;5.40;;;3.40;99.90;;;;;;5038396;28;20250;-52
2024/01/29 08:04:20;;;;;;;9.00;5.13;;;3.50;99.90;;;;;;5037749;28;20600;-54
2024/01/29 08:06:46;;;;;;;11.07;7.37;;;3.40;99.90;;;;;;5043423;28;20615;-52
2024/01/29 08:09:12;;;;;;;11.20;6.33;;;3.50;99.90;;;;;;5017416;28;20202;-53
2024/01/29 08:11:37;;;;;;;7.40;4.33;;;3.50;99.90;;;;;;5035783;28;20202;-53
2024/01/29 08:14:03;;;;;;;8.93;5.37;;;3.60;99.90;;;;;;5038401;28;20867;-52
2024/01/29 08:16:29;;;;;;;7.60;4.80;;;3.60;99.90;;;;;;5047030;28;20580;-52
2024/01/29 08:18:55;;;;;;;5.07;4.30;;;3.50;99.90;;;;;;5044578;28;20628;-52
2024/01/29 08:21:20;;;;;;;7.47;5.10;;;3.70;99.90;;;;;;5038826;28;20205;-51
2024/01/29 08:23:46;;;;;;;9.07;4.60;;;3.80;99.90;;;;;;5039135;28;20199;-51
2024/01/29 08:26:12;;;;;;;10.43;4.97;;;3.80;99.90;;;;;;5024518;28;20206;-53
2024/01/29 08:28:37;;;;;;;8.10;4.90;;;3.90;99.90;;;;;;5041807;28;20222;-60
2024/01/29 08:31:03;;;;;;;7.77;5.13;;;4.00;99.90;;;;;;5039981;28;20238;-51
2024/01/29 08:33:29;;;;;;;9.53;6.17;;;4.10;99.90;;;;;;5046108;28;20784;-52
2024/01/29 08:35:55;;;;;;;7.93;4.33;;;4.20;99.90;;;;;;5024518;28;20313;-52
2024/01/29 08:38:21;;;;;;;10.33;4.73;;;4.20;99.90;;;;;;5036269;28;20618;-52
2024/01/29 08:40:47;;;;;;;7.20;4.53;;;4.30;99.90;;;;;;5043723;28;20661;-52
2024/01/29 08:43:12;;;;;;;8.87;4.80;;;4.30;99.90;;;;;;5042852;28;20224;-59
2024/01/29 08:45:39;;;;;;;5.87;4.80;;;4.40;99.90;;;;;;5044092;28;20714;-58
2024/01/29 08:48:04;;;;;;;5.67;4.40;;;4.40;99.90;;;;;;5019935;28;21076;-58
2024/01/29 08:50:34;;;;;;;5.50;4.80;;;4.50;99.90;;;;;;5045542;28;20207;-59
2024/01/29 08:53:00;;;;;;;8.70;4.67;;;4.60;99.90;;;;;;5038418;28;20206;-60
2024/01/29 08:55:26;;;;;;;5.13;4.47;;;4.60;99.90;;;;;;5026978;28;20305;-55
2024/01/29 08:57:52;;;;;;;7.80;4.63;;;4.70;99.90;;;;;;5012827;28;20202;-52
2024/01/29 09:00:18;;;;;;;8.40;5.17;;;4.80;99.90;;;;;;5035951;28;20269;-51
2024/01/29 09:02:44;;;;;;;9.57;4.50;;;4.80;99.90;;;;;;5017169;28;20194;-52
2024/01/29 09:05:09;;;;;;;8.83;4.67;;;4.90;99.90;;;;;;5014447;28;20198;-54
2024/01/29 09:07:35;;;;;;;5.27;3.90;;;5.00;99.90;;;;;;5017957;28;20202;-52
2024/01/29 09:10:01;;;;;;;8.03;4.73;;;5.00;99.90;;;;;;5020291;28;20217;-54
2024/01/29 09:12:26;;;;;;;7.63;5.43;;;5.10;99.90;;;;;;5003474;28;20202;-53
2024/01/29 09:14:52;;;;;;;5.73;4.47;;;5.20;99.90;;;;;;5037405;28;20716;-54
2024/01/29 09:17:18;;;;;;;7.37;4.50;;;5.30;99.90;;;;;;5040605;28;20283;-52
2024/01/29 09:19:45;;;;;;;8.23;4.57;;;5.30;99.90;;;;;;5024930;28;20540;-55
2024/01/29 09:22:11;;;;;;;5.97;4.40;;;5.30;99.90;;;;;;5019541;28;20206;-53
2024/01/29 09:24:37;;;;;;;6.50;4.67;;;5.30;99.90;;;;;;5040480;28;20217;-56
2024/01/29 09:27:02;;;;;;;10.57;4.47;;;5.40;99.90;;;;;;5041900;28;20566;-57
2024/01/29 09:29:28;;;;;;;7.60;4.50;;;5.40;99.90;;;;;;5009662;28;20225;-55
2024/01/29 09:31:53;;;;;;;7.00;3.60;;;5.50;99.90;;;;;;5029375;28;20218;-56
2024/01/29 09:34:20;;;;;;;5.87;4.13;;;5.50;99.30;;;;;;5031030;28;20267;-56
2024/01/29 09:36:46;;;;;;;9.20;4.57;;;5.60;99.50;;;;;;5034896;28;21103;-57
2024/01/29 09:39:12;;;;;;;7.97;4.33;;;5.70;99.30;;;;;;5035025;28;20233;-52
2024/01/29 09:41:38;;;;;;;6.27;3.93;;;5.80;99.10;;;;;;5028031;28;20223;-54
2024/01/29 09:44:06;;;;;;;4.43;3.97;;;5.90;99.00;;;;;;5015524;28;20206;-56
2024/01/29 09:46:36;;;;;;;8.73;3.63;;;5.90;99.00;;;;;;5033238;28;20749;-59
2024/01/29 09:49:02;;;;;;;4.63;3.90;;;5.90;98.80;;;;;;5031295;28;20199;-53
2024/01/29 09:51:28;;;;;;;5.30;4.10;;;6.00;98.80;;;;;;5022704;28;20194;-52
2024/01/29 09:53:54;;;;;;;7.13;4.17;;;6.10;98.60;;;;;;5000910;28;20294;-51
2024/01/29 09:56:20;;;;;;;6.93;4.50;;;6.20;98.20;;;;;;5018104;28;20627;-55
2024/01/29 09:58:46;;;;;;;7.20;4.20;;;6.30;97.90;;;;;;5031666;28;20207;-51
2024/01/29 10:01:15;;;;;;;5.50;3.47;;;6.30;97.80;;;;;;5012393;28;20206;-52
2024/01/29 10:03:41;;;;;;;7.93;3.67;;;6.40;97.50;;;;;;5031209;28;20198;-52
2024/01/29 10:06:07;;;;;;;5.87;3.83;;;6.50;97.40;;;;;;5031978;28;20245;-53
2024/01/29 10:08:35;;;;;;;4.63;3.43;;;6.60;97.40;;;;;;5035964;28;20194;-57
2024/01/29 10:11:00;;;;;;;8.40;3.40;;;6.70;97.20;;;;;;5032726;28;20293;-57
2024/01/29 10:13:26;;;;;;;7.83;4.37;;;6.70;97.00;;;;;;5021708;28;20600;-58
2024/01/29 10:15:52;;;;;;;7.33;3.97;;;6.80;96.60;;;;;;5040609;28;20218;-58
2024/01/29 10:18:18;;;;;;;8.67;4.37;;;6.90;96.80;;;;;;5042066;28;20223;-60
2024/01/29 10:20:43;;;;;;;5.97;3.97;;;7.00;96.40;;;;;;5028276;28;20194;-64
2024/01/29 10:23:09;;;;;;;6.37;4.10;;;6.90;96.50;;;;;;5044552;28;20216;-59
2024/01/29 10:25:38;;;;;;;5.60;3.43;;;7.00;96.30;;;;;;5023896;28;20198;-58
2024/01/29 10:28:12;;;;;;;7.07;4.30;;;7.10;96.30;;;;;;5025639;28;20300;-53
2024/01/29 10:30:41;;;;;;;5.83;4.10;;;7.10;95.80;;;;;;5007586;28;20416;-59
2024/01/29 10:33:07;;;;;;;4.47;3.73;;;7.20;95.60;;;;;;5008016;28;20655;-54
2024/01/29 10:35:33;;;;;;;5.57;4.03;;;7.20;95.70;;;;;;5015624;28;20286;-52
2024/01/29 10:38:04;;;;;;;5.97;3.63;;;7.40;95.40;;;;;;5029254;28;20277;-52
2024/01/29 10:40:31;;;;;;;8.33;4.10;;;7.60;95.20;;;;;;5016684;28;20198;-51
2024/01/29 10:42:59;;;;;;;6.10;3.73;;;7.80;94.80;;;;;;5015572;28;20198;-52
2024/01/29 10:45:25;;;;;;;5.20;3.93;;;8.00;94.50;;;;;;5035854;28;20293;-52
2024/01/29 10:48:09;;;;;;;4.10;3.70;;;8.10;94.00;;;;;;5015281;28;20302;-52
2024/01/29 10:50:35;;;;;;;7.33;3.87;;;8.30;93.80;;;;;;5016131;28;20271;-52
2024/01/29 10:53:03;;;;;;;6.50;3.90;;;8.50;93.20;;;;;;5040245;28;20202;-54
2024/01/29 10:55:30;;;;;;;5.07;3.33;;;8.70;92.50;;;;;;5040548;28;20276;-51
2024/01/29 10:58:00;;;;;;;6.07;3.73;;;8.80;92.50;;;;;;5040847;28;20862;-55
2024/01/29 11:00:26;;;;;;;4.70;3.70;;;8.90;92.60;;;;;;5038549;28;20209;-52
2024/01/29 11:02:53;;;;;;;8.00;3.87;;;9.00;91.70;;;;;;5034906;28;20199;-53
2024/01/29 11:05:20;;;;;;;6.30;3.07;;;9.20;91.10;;;;;;5018998;28;20256;-52
2024/01/29 11:07:47;;;;;;;10.43;3.63;;;9.20;91.60;;;;;;5031514;28;20277;-51
2024/01/29 11:10:22;;;;;;;6.00;4.10;;;9.40;91.00;;;;;;5015480;28;20567;-52
2024/01/29 11:12:53;;;;;;;6.40;4.00;;;9.70;89.90;;;;;;5036618;28;20206;-54
2024/01/29 11:15:19;;;;;;;6.43;3.73;;;9.80;89.90;;;;;;5033167;28;20291;-53
2024/01/29 11:17:45;;;;;;;4.47;3.50;;;10.00;86.60;;;;;;5038195;28;20243;-53
2024/01/29 11:20:12;;;;;;;3.03;2.63;;;10.10;84.80;;;;;;5030708;28;20276;-53
2024/01/29 11:22:49;;;;;;;5.27;3.43;;;10.30;84.70;;;;;;5028282;28;20728;-52
2024/01/29 11:25:15;;;;;;;4.43;3.00;;;10.30;85.40;;;;;;5024809;28;20571;-52
2024/01/29 11:27:49;;;;;;;4.33;2.73;;;10.50;83.20;;;;;;5012389;28;20629;-52
2024/01/29 11:30:20;;;;;;;5.43;3.70;;;10.70;81.00;;;;;;5013982;28;20199;-53
2024/01/29 11:32:47;;;;;;;7.77;3.00;;;10.90;78.70;;;;;;5012488;28;20189;-55
2024/01/29 11:35:17;;;;;;;5.97;3.03;;;11.10;78.10;;;;;;5015020;28;20995;-52
2024/01/29 11:37:43;;;;;;;6.70;3.03;;;11.20;77.70;;;;;;5011856;28;20309;-52
2024/01/29 11:40:32;;;;;;;8.57;3.57;;;11.20;75.50;;;;;;5017596;28;20818;-57
2024/01/29 11:42:58;;;;;;;6.67;3.47;;;11.20;74.70;;;;;;5013123;28;20762;-52
2024/01/29 11:45:26;;;;;;;6.60;2.40;;;11.30;74.80;;;;;;5021309;28;20276;-55
2024/01/29 11:47:52;;;;;;;3.13;2.70;;;11.40;76.60;;;;;;5007995;28;20248;-52
2024/01/29 11:50:17;;;;;;;4.60;2.50;;;11.60;73.10;;;;;;5009378;28;20208;-52
2024/01/29 11:52:43;;;;;;;4.17;2.80;;;11.80;71.20;;;;;;5014272;28;20206;-60
2024/01/29 11:55:09;;;;;;;3.30;2.30;;;11.90;70.50;;;;;;5022416;28;20203;-52
2024/01/29 11:57:34;;;;;;;3.90;2.73;;;11.80;69.40;;;;;;5025873;28;20877;-52
2024/01/29 12:00:07;;;;;;;3.60;2.57;;;11.70;69.70;;;;;;5023678;28;20214;-53
2024/01/29 12:02:32;;;;;;;2.37;2.20;;;11.60;68.90;;;;;;5024184;28;20296;-52
2024/01/29 12:04:58;;;;;;;3.63;2.57;;;11.60;67.20;;;;;;5017989;28;20481;-52
2024/01/29 12:07:23;;;;;;;2.63;2.43;;;11.70;67.30;;;;;;5024299;28;20676;-57
2024/01/29 12:09:49;;;;;;;5.17;2.37;;;11.50;68.50;;;;;;5022151;28;20193;-50
2024/01/29 12:12:15;;;;;;;5.00;2.73;;;11.50;66.90;;;;;;5021989;28;20249;-52
2024/01/29 12:14:40;;;;;;;2.97;2.57;;;11.50;68.90;;;;;;5024893;28;20219;-57
2024/01/29 12:17:06;;;;;;;5.77;2.43;;;11.50;67.30;;;;;;5023588;28;20576;-54
2024/01/29 12:19:33;;;;;;;5.30;3.07;;;11.40;67.30;;;;;;5028089;28;20262;-53
2024/01/29 12:21:59;;;;;;;2.83;2.40;;;11.30;67.30;;;;;;5010027;28;20191;-57
2024/01/29 12:24:26;;;;;;;3.97;2.97;;;11.20;66.40;;;;;;5006758;28;20202;-52
2024/01/29 12:26:52;;;;;;;6.03;2.77;;;11.10;67.10;;;;;;5026946;28;20753;-52
2024/01/29 12:29:19;;;;;;;4.07;2.73;;;11.10;67.90;;;;;;5041774;28;20204;-57
2024/01/29 12:31:44;;;;;;;4.23;2.50;;;11.30;67.10;;;;;;5018896;28;20201;-53
2024/01/29 12:34:19;;;;;;;4.90;2.97;;;11.40;66.90;;;;;;5039059;28;20254;-53
2024/01/29 12:36:51;;;;;;;4.77;3.07;;;11.40;66.60;;;;;;5030321;28;20212;-53
2024/01/29 12:39:17;;;;;;;4.63;2.67;;;11.20;67.60;;;;;;5027989;28;20209;-53
2024/01/29 12:41:42;;;;;;;6.23;3.33;;;11.30;66.90;;;;;;5034492;28;20195;-54
2024/01/29 12:44:10;;;;;;;4.77;3.37;;;11.30;67.10;;;;;;5034332;28;20208;-56
2024/01/29 12:46:35;;;;;;;5.87;3.17;;;11.50;66.70;;;;;;5033340;28;20198;-52